createdAt,value
2017-06-24T05:03:07.793Z,944.8
2017-06-24T05:04:16.106Z,944.8
2017-06-24T05:05:24.287Z,944.7
2017-06-24T05:06:32.130Z,944.8
2017-06-24T05:07:40.637Z,944.8
2017-06-24T05:08:48.251Z,944.7
2017-06-24T05:09:56.219Z,944.8
2017-06-24T05:11:04.310Z,944.7
2017-06-24T05:12:12.399Z,944.7
2017-06-24T05:13:20.490Z,944.8
2017-06-24T05:14:28.642Z,944.8
2017-06-24T05:15:36.669Z,944.8
2017-06-24T05:16:44.769Z,944.8
2017-06-24T05:17:52.858Z,944.9
2017-06-24T05:19:01.070Z,944.9
2017-06-24T05:20:09.159Z,944.8
2017-06-24T05:21:17.783Z,944.9
2017-06-24T05:22:25.520Z,944.9
2017-06-24T05:23:33.519Z,944.9
2017-06-24T05:24:41.402Z,944.9
2017-06-24T05:25:49.639Z,945.0
2017-06-24T05:26:57.619Z,945.0
2017-06-24T05:28:05.674Z,945.0
2017-06-24T05:29:13.829Z,945.0
2017-06-24T05:30:21.866Z,944.9
2017-06-24T05:31:30.339Z,945.0
2017-06-24T05:32:38.034Z,944.9
2017-06-24T05:33:46.184Z,944.9
2017-06-24T05:34:54.549Z,945.0
2017-06-24T05:36:02.366Z,945.0
2017-06-24T05:37:11.572Z,945.0
2017-06-24T05:38:18.483Z,945.0
2017-06-24T05:39:26.573Z,945.0
2017-06-24T05:40:34.661Z,944.9
2017-06-24T05:41:43.072Z,944.9
2017-06-24T05:42:51.175Z,945.0
2017-06-24T05:43:58.932Z,945.0
2017-06-24T05:45:07.090Z,945.0
2017-06-24T05:46:15.304Z,945.0
2017-06-24T05:47:23.289Z,945.0
2017-06-24T05:48:31.454Z,945.0
2017-06-24T05:49:39.407Z,945.0
2017-06-24T05:50:47.592Z,945.0
2017-06-24T05:51:55.562Z,944.9
2017-06-24T05:53:03.770Z,945.0
2017-06-24T05:54:11.859Z,945.0
2017-06-24T05:55:20.182Z,945.0
2017-06-24T05:56:27.918Z,945.0
2017-06-24T05:57:36.008Z,945.0
2017-06-24T05:58:44.152Z,945.1
2017-06-24T05:59:52.345Z,945.1
2017-06-24T06:01:00.371Z,945.1
2017-06-24T06:02:08.364Z,945.1
2017-06-24T06:03:16.571Z,945.1
2017-06-24T06:04:24.546Z,945.1
2017-06-24T06:05:32.805Z,945.1
2017-06-24T06:06:41.062Z,945.0
2017-06-24T06:07:48.889Z,945.1
2017-06-24T06:08:57.018Z,945.0
2017-06-24T06:10:05.190Z,945.0
2017-06-24T06:11:13.215Z,945.0
2017-06-24T06:12:22.754Z,945.1
2017-06-24T06:13:29.329Z,945.1
2017-06-24T06:14:37.354Z,945.2
2017-06-24T06:15:45.472Z,945.1
2017-06-24T06:16:53.658Z,945.1
2017-06-24T06:18:01.625Z,945.1
2017-06-24T06:19:09.810Z,945.1
2017-06-24T06:20:17.915Z,945.1
2017-06-24T06:21:25.952Z,945.1
2017-06-24T06:22:34.176Z,945.1
2017-06-24T06:23:42.075Z,945.1
2017-06-24T06:24:50.286Z,945.1
2017-06-24T06:25:58.315Z,945.1
2017-06-24T06:27:06.345Z,945.1
2017-06-24T06:28:14.578Z,945.1
2017-06-24T06:29:22.594Z,945.1
2017-06-24T06:30:30.645Z,945.2
2017-06-24T06:31:38.706Z,945.2
2017-06-24T06:32:47.076Z,945.1
2017-06-24T06:33:55.047Z,945.1
2017-06-24T06:35:02.972Z,945.1
2017-06-24T06:36:11.063Z,945.1
2017-06-24T06:37:19.154Z,945.1
2017-06-24T06:38:27.401Z,945.1
2017-06-24T06:39:35.723Z,945.1
2017-06-24T06:40:43.568Z,945.1
2017-06-24T06:41:51.921Z,945.0
2017-06-24T06:42:59.708Z,945.1
2017-06-24T06:44:07.781Z,945.1
2017-06-24T06:45:15.948Z,945.2
2017-06-24T06:46:23.888Z,945.1
2017-06-24T06:47:32.058Z,945.1
2017-06-24T06:48:40.130Z,945.1
2017-06-24T06:49:48.151Z,945.2
2017-06-24T06:50:56.683Z,945.2
2017-06-24T06:52:04.432Z,945.2
2017-06-24T10:35:38.098Z,944.3
2017-06-24T10:36:46.145Z,944.3
2017-06-24T10:37:54.156Z,944.3
2017-06-24T10:39:02.240Z,944.3
2017-06-24T10:40:10.335Z,944.3
2017-06-24T10:41:18.479Z,944.3
2017-06-24T10:42:26.515Z,944.3
2017-06-24T10:43:34.614Z,944.3
2017-06-24T10:44:42.694Z,944.3
2017-06-24T10:45:50.784Z,944.3
2017-06-24T10:46:58.994Z,944.3
2017-06-24T10:48:06.960Z,944.2
2017-06-24T10:49:15.050Z,944.2
2017-06-24T10:50:23.138Z,944.2
2017-06-24T10:51:31.351Z,944.3
2017-06-24T10:52:39.375Z,944.3
2017-06-24T10:53:47.418Z,944.2
2017-06-24T10:54:55.612Z,944.2
2017-06-24T10:56:03.588Z,944.2
2017-06-24T10:57:11.679Z,944.2
2017-06-24T10:58:19.821Z,944.2
2017-06-24T10:59:27.855Z,944.2
2017-06-24T11:00:35.950Z,944.2
2017-06-24T11:01:44.033Z,944.2
2017-06-24T11:02:52.205Z,944.2
2017-06-24T11:04:00.334Z,944.1
2017-06-24T11:05:08.304Z,944.1
2017-06-24T11:06:16.393Z,944.1
2017-06-24T11:07:24.603Z,944.1
2017-06-24T11:08:32.569Z,944.1
2017-06-24T11:09:40.779Z,944.1
2017-06-24T11:10:48.913Z,944.1
2017-06-24T11:11:57.012Z,944.1
2017-06-24T11:13:04.928Z,944.1
2017-06-24T11:14:13.016Z,944.1
2017-06-24T11:15:21.160Z,944.1
2017-06-24T11:16:29.200Z,944.1
2017-06-24T11:17:37.374Z,944.1
2017-06-24T11:18:45.376Z,944.1
2017-06-24T11:19:53.515Z,944.1
2017-06-24T11:21:01.676Z,944.1
2017-06-24T11:22:09.645Z,944.1
2017-06-24T11:23:17.855Z,944.1
2017-06-24T11:24:25.828Z,944.1
2017-06-24T11:25:33.914Z,944.1
2017-06-24T11:26:42.062Z,944.1
2017-06-24T11:27:50.092Z,944.1
2017-06-24T11:28:58.182Z,944.0
2017-06-24T11:30:06.271Z,944.0
2017-06-24T11:31:14.363Z,944.0
2017-06-24T11:32:22.571Z,944.0
2017-06-24T11:33:30.537Z,943.9
2017-06-24T11:34:38.762Z,943.9
2017-06-24T11:35:46.719Z,943.9
2017-06-24T11:36:54.812Z,944.0
2017-06-24T11:38:03.025Z,943.9
2017-06-24T11:39:11.112Z,943.9
2017-06-24T11:40:19.109Z,944.0
2017-06-24T11:41:27.174Z,944.0
2017-06-24T11:42:35.263Z,943.9
2017-06-24T11:43:43.409Z,943.9
2017-06-24T11:44:51.442Z,943.9
2017-06-24T11:45:59.531Z,943.9
2017-06-24T11:47:07.620Z,943.9
2017-06-24T11:48:15.707Z,943.9
2017-06-24T11:49:23.853Z,943.9
2017-06-24T11:50:31.887Z,943.9
2017-06-24T11:51:40.112Z,943.8
2017-06-24T11:52:48.065Z,943.8
2017-06-24T11:53:56.156Z,943.8
2017-06-24T11:55:04.366Z,943.8
2017-06-24T11:56:12.336Z,943.9
2017-06-24T11:57:20.424Z,943.8
2017-06-24T11:58:28.513Z,943.8
2017-06-24T11:59:36.603Z,943.8
2017-06-24T12:00:44.751Z,943.8
2017-06-24T12:01:52.783Z,943.8
2017-06-24T12:03:00.872Z,943.8
2017-06-24T12:04:08.962Z,943.8
2017-06-24T12:05:17.053Z,943.8
2017-06-24T12:06:25.262Z,943.8
2017-06-24T12:07:33.232Z,943.8
2017-06-24T12:08:41.383Z,943.8
2017-06-24T12:09:49.410Z,943.8
2017-06-24T12:10:57.558Z,943.7
2017-06-24T12:12:05.711Z,943.7
2017-06-24T12:13:14.061Z,943.7
2017-06-24T12:14:21.826Z,943.7
2017-06-24T12:15:30.278Z,943.6
2017-06-24T12:16:37.950Z,943.6
2017-06-24T12:17:46.091Z,943.6
2017-06-24T12:18:54.126Z,943.6
2017-06-24T12:20:02.216Z,943.6
2017-06-24T12:21:10.308Z,943.6
2017-06-24T12:22:18.396Z,943.6
2017-06-24T12:23:26.608Z,943.6
2017-06-24T12:24:34.577Z,943.6
2017-06-24T12:25:42.851Z,943.5
2017-06-24T12:26:50.875Z,943.5
2017-06-24T12:27:58.854Z,943.5
2017-06-24T12:29:06.999Z,943.5
2017-06-24T12:30:15.032Z,943.5
2017-06-24T12:31:23.211Z,943.5
2017-06-24T12:32:31.211Z,943.5
2017-06-24T12:33:39.299Z,943.5
2017-06-24T12:34:47.508Z,943.5
2017-06-24T12:35:55.480Z,943.5
2017-06-24T12:37:03.571Z,943.5
2017-06-24T12:38:11.660Z,943.5
2017-06-24T12:39:19.749Z,943.5
2017-06-24T12:40:27.958Z,943.5
2017-06-24T12:41:35.929Z,943.4
2017-06-24T12:42:44.331Z,943.4
2017-06-24T12:43:52.108Z,943.4
2017-06-24T12:45:00.196Z,943.4
2017-06-24T12:46:08.342Z,943.4
2017-06-24T12:47:16.376Z,943.4
2017-06-24T12:48:24.470Z,943.4
2017-06-24T12:49:32.557Z,943.3
2017-06-24T12:50:40.646Z,943.4
2017-06-24T12:51:48.858Z,943.4
2017-06-24T12:52:56.824Z,943.3
2017-06-24T12:54:04.915Z,943.3
2017-06-24T12:55:13.023Z,943.2
2017-06-24T12:56:21.096Z,943.3
2017-06-24T12:57:29.304Z,943.2
2017-06-24T12:58:37.333Z,943.2
2017-06-24T12:59:45.366Z,943.2
2017-06-24T13:00:53.456Z,943.2
2017-06-24T13:02:01.547Z,943.1
2017-06-24T13:03:09.691Z,943.1
2017-06-24T13:04:17.725Z,943.1
2017-06-24T13:05:26.011Z,943.2
2017-06-24T13:06:33.906Z,943.1
2017-06-24T13:07:42.015Z,943.1
2017-06-24T13:08:50.143Z,943.1
2017-06-24T13:09:58.179Z,943.1
2017-06-24T13:11:06.264Z,943.1
2017-06-24T13:12:14.371Z,943.0
2017-06-24T13:13:22.455Z,943.1
2017-06-24T13:14:30.663Z,943.1
2017-06-24T13:15:38.634Z,943.0
2017-06-24T13:16:46.724Z,943.0
2017-06-24T13:17:54.812Z,943.0
2017-06-24T13:19:02.905Z,943.0
2017-06-24T13:20:11.050Z,943.0
2017-06-24T13:21:19.082Z,943.0
2017-06-24T13:22:27.182Z,942.9
2017-06-24T13:23:35.271Z,942.9
2017-06-24T13:24:43.361Z,942.9
2017-06-24T13:25:51.572Z,943.0
2017-06-24T13:26:59.543Z,942.9
2017-06-24T13:28:07.631Z,942.9
2017-06-24T13:29:15.821Z,942.9
2017-06-24T13:30:23.866Z,942.8
2017-06-24T13:31:32.118Z,942.8
2017-06-24T13:32:39.990Z,942.8
2017-06-24T13:33:48.083Z,942.8
2017-06-24T13:34:56.184Z,942.8
2017-06-24T13:36:04.262Z,942.8
2017-06-24T13:37:12.407Z,942.8
2017-06-24T13:38:21.131Z,942.8
2017-06-24T13:39:28.539Z,942.8
2017-06-24T13:40:36.629Z,942.8
2017-06-24T13:41:44.726Z,942.8
2017-06-24T13:42:53.184Z,942.8
2017-06-24T13:44:00.898Z,942.8
2017-06-24T13:45:08.989Z,942.8
2017-06-24T13:46:17.136Z,942.8
2017-06-24T13:47:25.170Z,942.8
2017-06-24T13:48:33.392Z,942.8
2017-06-24T13:49:41.360Z,942.8
2017-06-24T13:50:49.450Z,942.8
2017-06-24T13:51:57.660Z,942.8
2017-06-24T13:53:05.630Z,942.7
2017-06-24T13:54:13.843Z,942.7
2017-06-24T13:55:21.808Z,942.8
2017-06-24T13:56:29.900Z,942.7
2017-06-24T13:57:38.006Z,942.7
2017-06-24T13:58:46.102Z,942.7
2017-06-24T13:59:54.227Z,942.7
2017-06-24T14:01:02.261Z,942.6
2017-06-24T14:02:10.408Z,942.7
2017-06-24T14:03:18.442Z,942.7
2017-06-24T14:04:26.531Z,942.6
2017-06-24T14:05:34.742Z,942.6
2017-06-24T14:06:42.712Z,942.6
2017-06-24T14:07:50.801Z,942.7
2017-06-24T14:08:59.042Z,942.7
2017-06-24T14:10:07.002Z,942.6
2017-06-24T14:11:15.195Z,942.6
2017-06-24T14:12:23.163Z,942.6
2017-06-24T14:13:31.254Z,942.6
2017-06-24T14:14:39.344Z,942.6
2017-06-24T14:15:47.435Z,942.5
2017-06-24T14:16:55.644Z,942.6
2017-06-24T14:18:03.736Z,942.6
2017-06-24T14:19:11.869Z,942.6
2017-06-24T14:20:19.795Z,942.6
2017-06-24T14:21:27.886Z,942.6
2017-06-24T14:22:36.097Z,942.6
2017-06-24T14:23:44.065Z,942.6
2017-06-24T14:24:52.161Z,942.6
2017-06-24T14:26:00.415Z,942.6
2017-06-24T14:27:08.338Z,942.6
2017-06-24T14:28:16.485Z,942.7
2017-06-24T14:29:24.522Z,942.6
2017-06-24T14:30:32.611Z,942.6
2017-06-24T14:31:40.779Z,942.6
2017-06-24T14:32:48.875Z,942.6
2017-06-24T14:33:57.011Z,942.5
2017-06-24T14:35:04.981Z,942.6
2017-06-24T14:36:13.080Z,942.6
2017-06-24T14:37:21.172Z,942.6
2017-06-24T14:38:29.264Z,942.7
2017-06-24T14:39:37.409Z,942.6
2017-06-24T14:40:45.450Z,942.6
2017-06-24T14:41:53.545Z,942.5
2017-06-24T14:43:01.826Z,942.5
2017-06-24T14:44:09.723Z,942.5
2017-06-24T14:45:17.933Z,942.6
2017-06-24T14:46:25.904Z,942.5
2017-06-24T14:47:33.993Z,942.5
2017-06-24T14:48:42.182Z,942.5
2017-06-24T14:49:50.405Z,942.5
2017-06-24T14:50:58.383Z,942.5
2017-06-24T14:52:06.354Z,942.5
2017-06-24T14:53:14.446Z,942.6
2017-06-24T14:54:22.535Z,942.5
2017-06-24T14:55:30.636Z,942.4
2017-06-24T14:56:38.838Z,942.5
2017-06-24T14:57:46.805Z,942.5
2017-06-24T14:58:54.895Z,942.5
2017-06-24T15:00:02.987Z,942.6
2017-06-24T15:01:11.082Z,942.5
2017-06-24T15:02:19.223Z,942.5
2017-06-24T15:03:27.258Z,942.5
2017-06-24T15:04:35.348Z,942.5
2017-06-24T15:05:43.527Z,942.5
2017-06-24T15:06:51.678Z,942.4
2017-06-24T15:07:59.740Z,942.4
2017-06-24T15:09:07.786Z,942.4
2017-06-24T15:10:15.801Z,942.4
2017-06-24T15:11:23.892Z,942.3
2017-06-24T15:12:32.090Z,942.4
2017-06-24T15:13:40.130Z,942.4
2017-06-24T15:14:48.161Z,942.4
2017-06-24T15:15:56.254Z,942.4
2017-06-24T15:17:04.343Z,942.3
2017-06-24T15:18:12.438Z,942.3
2017-06-24T15:19:20.586Z,942.3
2017-06-24T15:20:28.621Z,942.4
2017-06-24T15:21:36.832Z,942.4
2017-06-24T15:22:44.802Z,942.4
2017-06-24T15:23:52.894Z,942.4
2017-06-24T15:25:01.039Z,942.4
2017-06-24T15:26:09.071Z,942.4
2017-06-24T15:27:17.163Z,942.3
2017-06-24T15:28:25.252Z,942.3
2017-06-24T15:29:33.414Z,942.3
2017-06-24T15:30:41.557Z,942.3
2017-06-24T15:31:49.524Z,942.3
2017-06-24T15:32:57.616Z,942.3
2017-06-24T15:34:05.710Z,942.2
2017-06-24T15:35:13.869Z,942.3
2017-06-24T15:36:22.082Z,942.2
2017-06-24T15:37:30.031Z,942.2
2017-06-24T15:38:38.067Z,942.2
2017-06-24T15:39:46.159Z,942.3
2017-06-24T15:40:54.249Z,942.3
2017-06-24T15:42:02.458Z,942.3
2017-06-24T15:43:10.429Z,942.3
2017-06-24T15:44:18.520Z,942.3
2017-06-24T15:45:26.610Z,942.3
2017-06-24T15:46:34.697Z,942.2
2017-06-24T15:47:42.910Z,942.2
2017-06-24T15:48:50.880Z,942.3
2017-06-24T15:49:58.972Z,942.2
2017-06-24T15:51:07.062Z,942.2
2017-06-24T15:52:15.262Z,942.2
2017-06-24T15:53:23.483Z,942.2
2017-06-24T15:54:31.333Z,942.2
2017-06-24T15:55:39.423Z,942.2
2017-06-24T15:56:47.523Z,942.2
2017-06-24T15:57:55.604Z,942.2
2017-06-24T15:59:03.857Z,942.2
2017-06-24T16:00:11.783Z,942.2
2017-06-24T16:01:19.884Z,942.2
2017-06-24T16:02:27.973Z,942.2
2017-06-24T16:03:36.066Z,942.3
2017-06-24T16:04:44.210Z,942.3
2017-06-24T16:05:52.244Z,942.3
2017-06-24T16:07:00.334Z,942.3
2017-06-24T16:08:08.423Z,942.3
2017-06-24T16:09:16.823Z,942.3
2017-06-24T16:10:24.662Z,942.3
2017-06-24T16:11:32.698Z,942.2
2017-06-24T16:12:40.784Z,942.3
2017-06-24T16:13:48.874Z,942.3
2017-06-24T16:14:56.964Z,942.2
2017-06-24T16:16:05.334Z,942.2
2017-06-24T16:17:13.145Z,942.3
2017-06-24T16:18:21.233Z,942.3
2017-06-24T16:19:29.324Z,942.2
2017-06-24T16:20:37.414Z,942.2
2017-06-24T16:21:45.566Z,942.2
2017-06-24T16:22:53.710Z,942.2
2017-06-24T16:24:01.736Z,942.2
2017-06-24T16:25:09.892Z,942.2
2017-06-24T16:26:17.865Z,942.1
2017-06-24T16:27:26.009Z,942.1
2017-06-24T16:28:34.065Z,942.1
2017-06-24T16:29:42.134Z,942.1
2017-06-24T16:30:50.225Z,942.1
2017-06-24T16:31:58.316Z,942.1
2017-06-24T16:33:06.525Z,942.1
2017-06-24T16:34:14.492Z,942.1
2017-06-24T16:35:22.583Z,942.1
2017-06-24T16:36:30.672Z,942.1
2017-06-24T16:37:38.763Z,942.1
2017-06-24T16:38:47.061Z,942.1
2017-06-24T16:39:55.099Z,942.0
2017-06-24T16:41:03.156Z,942.1
2017-06-24T16:42:11.125Z,942.0
2017-06-24T16:43:19.213Z,942.1
2017-06-24T16:44:27.361Z,942.1
2017-06-24T16:45:35.394Z,942.1
2017-06-24T16:46:43.486Z,942.1
2017-06-24T16:47:51.576Z,942.1
2017-06-24T16:48:59.666Z,942.1
2017-06-24T16:50:07.877Z,942.2
2017-06-24T16:51:15.883Z,942.2
2017-06-24T16:52:24.014Z,942.2
2017-06-24T16:53:32.025Z,942.3
2017-06-24T16:54:40.116Z,942.2
2017-06-24T16:55:48.262Z,942.2
2017-06-24T16:56:56.417Z,942.2
2017-06-24T16:58:04.387Z,942.3
2017-06-24T16:59:12.478Z,942.3
2017-06-24T17:00:20.570Z,942.3
2017-06-24T17:01:28.781Z,942.2
2017-06-24T17:02:36.750Z,942.2
2017-06-24T17:03:44.854Z,942.3
2017-06-24T17:04:52.928Z,942.3
2017-06-24T17:06:01.017Z,942.2
2017-06-24T17:07:09.229Z,942.2
2017-06-24T17:08:17.199Z,942.3
2017-06-24T17:09:25.352Z,942.3
2017-06-24T17:10:33.389Z,942.3
2017-06-24T17:11:41.490Z,942.2
2017-06-24T17:12:49.690Z,942.2
2017-06-24T17:13:57.659Z,942.2
2017-06-24T17:15:05.919Z,942.3
2017-06-24T17:16:13.841Z,942.2
2017-06-24T17:17:21.931Z,942.3
2017-06-24T17:18:30.144Z,942.2
2017-06-24T17:19:38.111Z,942.3
2017-06-24T17:20:46.269Z,942.2
2017-06-24T17:21:54.291Z,942.3
2017-06-24T17:23:02.379Z,942.2
2017-06-24T17:24:10.591Z,942.2
2017-06-24T17:25:18.559Z,942.2
2017-06-24T17:26:26.724Z,942.2
2017-06-24T17:27:34.741Z,942.2
2017-06-24T17:28:42.952Z,942.2
2017-06-24T17:29:50.980Z,942.2
2017-06-24T17:30:59.012Z,942.2
2017-06-24T17:32:07.274Z,942.2
2017-06-24T17:33:15.193Z,942.2
2017-06-24T17:34:23.285Z,942.2
2017-06-24T17:35:31.434Z,942.3
2017-06-24T17:36:39.465Z,942.3
2017-06-24T17:37:47.700Z,942.3
2017-06-24T17:38:55.647Z,942.3
2017-06-24T17:40:03.738Z,942.3
2017-06-24T17:41:11.948Z,942.3
2017-06-24T17:42:19.915Z,942.3
2017-06-24T17:43:28.096Z,942.3
2017-06-24T17:44:36.324Z,942.3
2017-06-24T17:45:44.188Z,942.3
2017-06-24T17:46:52.400Z,942.3
2017-06-24T17:48:00.371Z,942.2
2017-06-24T17:49:08.462Z,942.3
2017-06-24T17:50:16.551Z,942.3
2017-06-24T17:51:24.642Z,942.3
2017-06-24T17:52:32.796Z,942.2
2017-06-24T17:53:40.832Z,942.2
2017-06-24T17:54:48.922Z,942.2
2017-06-24T17:55:57.013Z,942.2
2017-06-24T17:57:05.103Z,942.2
2017-06-24T17:58:13.315Z,942.2
2017-06-24T17:59:21.283Z,942.2
2017-06-24T18:00:29.562Z,942.2
2017-06-24T18:01:37.634Z,942.2
2017-06-24T18:02:45.555Z,942.2
2017-06-24T18:03:53.700Z,942.2
2017-06-24T18:05:01.734Z,942.2
2017-06-24T18:06:09.826Z,942.2
2017-06-24T18:07:17.973Z,942.2
2017-06-24T18:08:26.007Z,942.1
2017-06-24T18:09:34.217Z,942.2
2017-06-24T18:10:42.184Z,942.2
2017-06-24T18:11:50.275Z,942.1
2017-06-24T18:12:58.368Z,942.2
2017-06-24T18:14:06.456Z,942.1
2017-06-24T18:15:14.668Z,942.2
2017-06-24T18:16:22.758Z,942.2
2017-06-24T18:17:30.858Z,942.2
2017-06-24T18:18:38.817Z,942.2
2017-06-24T18:19:46.906Z,942.1
2017-06-24T18:20:55.054Z,942.1
2017-06-24T18:22:03.088Z,942.1
2017-06-24T18:23:11.181Z,942.1
2017-06-24T18:24:19.445Z,942.1
2017-06-24T18:25:27.360Z,942.1
2017-06-24T18:26:35.571Z,942.1
2017-06-24T18:27:43.540Z,942.1
